Time;durP1;ratioP1;P1;durP2;ratioP2;P2;SDS_P1;SDS_P2;PMS_P1;PMS_P2;Temp;Humidity;BMP_temperature;BMP_pressure;BME280_temperature;BME280_humidity;BME280_pressure;Samples;Min_cycle;Max_cycle;Signal;HPM_P1;HPM_P2
2024/03/03 00:00:14;;;;;;;11.63;7.82;;;10.20;65.30;;;5.47;100.00;93756.56;5009083;28;20053;-56
2024/03/03 00:02:40;;;;;;;13.13;9.00;;;10.20;65.40;;;5.40;100.00;93747.41;5016153;28;20031;-52
2024/03/03 00:05:07;;;;;;;12.25;8.55;;;10.20;65.40;;;5.36;100.00;93738.44;5009671;28;20542;-55
2024/03/03 00:07:32;;;;;;;13.00;9.63;;;10.10;65.50;;;5.36;100.00;93733.16;5004771;28;20078;-55
2024/03/03 00:09:58;;;;;;;12.05;9.43;;;10.10;65.60;;;5.38;100.00;93734.44;5003757;28;20033;-55
2024/03/03 00:12:24;;;;;;;14.27;10.00;;;10.10;65.70;;;5.42;100.00;93738.13;5010462;28;20027;-54
2024/03/03 00:14:50;;;;;;;15.13;9.77;;;10.10;65.80;;;5.37;100.00;93719.69;5010369;28;20104;-56
2024/03/03 00:17:16;;;;;;;14.57;9.93;;;10.10;65.90;;;5.43;100.00;93726.50;5007679;28;20597;-56
2024/03/03 00:19:42;;;;;;;14.15;10.27;;;10.10;66.10;;;5.52;100.00;93729.34;5007377;28;20363;-53
2024/03/03 00:22:08;;;;;;;12.55;9.27;;;10.10;66.10;;;5.50;100.00;93715.59;5003479;28;20025;-54
2024/03/03 00:24:34;;;;;;;14.48;9.43;;;10.10;66.30;;;5.47;100.00;93718.81;5015408;28;20518;-57
2024/03/03 00:27:00;;;;;;;13.23;9.15;;;10.20;66.30;;;5.52;100.00;93718.78;4978809;28;20404;-57
2024/03/03 00:29:26;;;;;;;11.40;8.88;;;10.20;66.30;;;5.52;100.00;93718.78;5014231;28;20027;-57
2024/03/03 00:31:52;;;;;;;9.70;7.57;;;10.20;66.50;;;5.56;100.00;93720.56;5015185;28;20037;-56
2024/03/03 00:34:18;;;;;;;11.02;7.93;;;10.20;66.50;;;5.60;100.00;93712.88;5010207;28;20143;-56
2024/03/03 00:36:44;;;;;;;11.38;8.10;;;10.20;66.60;;;5.69;100.00;93707.78;5011858;28;20063;-55
2024/03/03 00:39:10;;;;;;;9.77;7.82;;;10.20;66.70;;;5.74;100.00;93705.09;5004510;28;20029;-52
2024/03/03 00:41:36;;;;;;;9.63;7.35;;;10.30;66.90;;;5.78;100.00;93706.88;5008131;28;20033;-54
2024/03/03 00:44:02;;;;;;;10.13;7.35;;;10.30;66.80;;;5.84;100.00;93706.84;5007681;28;20029;-56
2024/03/03 00:46:28;;;;;;;10.65;7.38;;;10.40;66.90;;;5.88;100.00;93713.91;5010395;28;20391;-57
2024/03/03 00:48:54;;;;;;;11.52;8.18;;;10.40;66.90;;;5.94;100.00;93714.69;5015640;28;20028;-55
2024/03/03 00:51:20;;;;;;;11.82;7.80;;;10.40;66.90;;;5.95;100.00;93701.19;5012961;28;20017;-52
2024/03/03 00:53:45;;;;;;;11.73;8.57;;;10.50;66.90;;;5.98;100.00;93707.75;5008705;28;20056;-53
2024/03/03 00:56:11;;;;;;;10.68;7.95;;;10.60;67.00;;;5.97;100.00;93709.63;5017141;28;20099;-57
2024/03/03 00:58:37;;;;;;;10.45;8.18;;;10.60;66.80;;;5.99;100.00;93712.00;5009697;28;20036;-55
2024/03/03 01:01:03;;;;;;;16.38;8.65;;;10.60;66.80;;;6.02;100.00;93695.59;5002293;28;20021;-55
2024/03/03 01:03:31;;;;;;;11.45;8.15;;;10.60;66.70;;;6.02;100.00;93709.59;5020898;28;20029;-57
2024/03/03 01:05:57;;;;;;;12.23;8.60;;;10.60;66.70;;;6.02;100.00;93703.50;4992906;28;20033;-56
2024/03/03 01:08:23;;;;;;;13.20;8.77;;;10.70;66.80;;;6.02;100.00;93704.28;4994026;28;20028;-54
2024/03/03 01:10:49;;;;;;;13.00;9.00;;;10.70;66.80;;;6.02;100.00;93703.50;5020198;28;20044;-53
2024/03/03 01:13:15;;;;;;;14.98;8.60;;;10.60;66.60;;;5.99;100.00;93706.72;5010864;28;20033;-54
2024/03/03 01:15:41;;;;;;;11.70;7.72;;;10.70;66.70;;;5.93;100.00;93692.75;5011357;28;20033;-53
2024/03/03 01:18:07;;;;;;;11.05;8.25;;;10.70;66.60;;;5.91;100.00;93694.84;5016562;28;20044;-53
2024/03/03 01:20:33;;;;;;;12.85;8.32;;;10.70;66.70;;;5.95;100.00;93685.31;5023812;28;20025;-52
2024/03/03 01:22:58;;;;;;;17.65;12.32;;;10.70;66.70;;;5.94;100.00;93683.75;5021296;28;20021;-55
2024/03/03 01:25:26;;;;;;;10.88;8.30;;;10.70;66.70;;;5.95;100.00;93687.19;5011511;28;20391;-54
2024/03/03 01:27:52;;;;;;;11.35;8.18;;;10.60;66.70;;;6.03;100.00;93686.56;5021573;28;20082;-52
2024/03/03 01:30:18;;;;;;;11.93;8.70;;;10.60;66.60;;;6.05;100.00;93691.56;5021197;28;20033;-57
2024/03/03 01:32:43;;;;;;;10.48;8.15;;;10.70;66.60;;;5.98;100.00;93678.69;5009311;28;20028;-54
2024/03/03 01:35:09;;;;;;;13.15;9.27;;;10.70;66.60;;;5.93;100.00;93678.78;5002351;28;20567;-56
2024/03/03 01:37:35;;;;;;;12.10;8.73;;;10.70;66.50;;;5.95;100.00;93676.63;5003528;28;20021;-54
2024/03/03 01:40:01;;;;;;;12.88;9.05;;;10.70;66.50;;;5.90;100.00;93671.38;4999276;28;20032;-55
2024/03/03 01:42:27;;;;;;;10.52;8.77;;;10.70;66.50;;;5.96;100.00;93668.41;5010353;28;20021;-53
2024/03/03 01:44:53;;;;;;;12.60;8.95;;;10.70;66.60;;;5.96;100.00;93670.28;5028413;28;20036;-56
2024/03/03 01:47:19;;;;;;;8.93;6.80;;;10.70;66.60;;;5.97;100.00;93669.19;5021340;28;20025;-55
2024/03/03 01:49:50;;;;;;;11.82;7.38;;;10.70;66.60;;;6.00;100.00;93660.72;5016126;28;20024;-54
2024/03/03 01:52:17;;;;;;;8.85;6.90;;;10.70;66.70;;;6.09;100.00;93660.88;4988811;28;20487;-56
2024/03/03 01:54:44;;;;;;;7.97;6.35;;;10.70;66.70;;;6.10;100.00;93647.38;5009723;28;20106;-53
2024/03/03 01:57:20;;;;;;;11.25;7.70;;;10.70;66.60;;;6.15;100.00;93655.25;5004441;28;20024;-54
2024/03/03 01:59:49;;;;;;;12.18;7.88;;;10.80;66.60;;;6.16;100.00;93658.66;5014168;28;20030;-58
2024/03/03 02:02:15;;;;;;;10.90;8.00;;;10.80;66.50;;;6.13;100.00;93660.00;4998802;28;20465;-57
2024/03/03 02:04:42;;;;;;;13.98;8.27;;;10.80;66.40;;;6.14;100.00;93663.44;4992108;28;20028;-55
2024/03/03 02:07:08;;;;;;;9.75;7.63;;;10.80;66.30;;;6.12;100.00;93661.09;5007018;28;20026;-55
2024/03/03 02:09:35;;;;;;;12.98;8.80;;;10.80;66.30;;;5.99;100.00;93659.94;5003468;28;20075;-56
2024/03/03 02:12:01;;;;;;;10.30;7.82;;;10.80;66.30;;;5.94;100.00;93656.56;5010264;28;20022;-57
2024/03/03 02:14:27;;;;;;;14.35;8.68;;;10.80;66.30;;;5.98;100.00;93653.03;5003561;28;20551;-56
2024/03/03 02:16:53;;;;;;;10.13;7.75;;;10.80;66.30;;;6.01;100.00;93664.91;5009139;28;20366;-56
2024/03/03 02:19:19;;;;;;;12.52;8.27;;;10.80;66.40;;;6.09;100.00;93652.94;5012901;28;20090;-56
2024/03/03 02:21:45;;;;;;;19.33;7.78;;;10.70;66.40;;;6.10;100.00;93662.44;5016010;28;20028;-54
2024/03/03 02:24:11;;;;;;;10.85;7.13;;;10.80;66.50;;;6.11;100.00;93659.53;5004885;28;20037;-57
2024/03/03 02:26:37;;;;;;;9.65;6.80;;;10.80;66.50;;;6.14;100.00;93651.03;5013473;28;20112;-56
2024/03/03 02:29:05;;;;;;;13.43;8.95;;;10.80;66.50;;;6.19;100.00;93661.53;5009390;28;20032;-56
2024/03/03 02:31:32;;;;;;;11.10;7.25;;;10.80;66.40;;;6.23;100.00;93654.59;5004131;28;20429;-58
2024/03/03 02:33:58;;;;;;;13.60;7.90;;;10.80;66.30;;;6.22;100.00;93653.03;5014521;28;20036;-54
2024/03/03 02:36:24;;;;;;;12.55;8.40;;;10.80;66.30;;;6.19;100.00;93648.31;4980966;28;20029;-57
2024/03/03 02:38:51;;;;;;;15.27;10.10;;;10.90;66.30;;;6.16;100.00;93640.16;5009876;28;20025;-55
2024/03/03 02:41:17;;;;;;;12.75;8.57;;;10.90;66.30;;;6.13;100.00;93638.88;5015298;28;20158;-57
2024/03/03 02:43:43;;;;;;;14.10;9.02;;;10.90;66.20;;;6.17;100.00;93639.09;5004100;28;20471;-57
2024/03/03 02:46:08;;;;;;;14.15;9.38;;;10.90;66.20;;;6.18;100.00;93641.47;5014651;28;20044;-57
2024/03/03 02:48:34;;;;;;;15.35;8.93;;;10.80;66.30;;;6.16;100.00;93634.88;5001736;28;20061;-54
2024/03/03 02:51:00;;;;;;;15.73;8.60;;;10.90;66.10;;;6.11;100.00;93635.75;5007330;28;20137;-56
2024/03/03 02:53:26;;;;;;;12.98;8.90;;;10.90;66.10;;;6.09;100.00;93631.81;5005281;28;20134;-57
2024/03/03 02:55:55;;;;;;;15.13;9.10;;;10.80;66.00;;;6.10;100.00;93631.50;5002829;28;20052;-56
2024/03/03 02:58:22;;;;;;;14.88;9.82;;;10.80;66.00;;;6.14;100.00;93631.72;5005405;28;20040;-54
2024/03/03 03:00:47;;;;;;;15.15;10.38;;;10.90;66.10;;;6.10;100.00;93623.56;5015712;28;20064;-55
2024/03/03 03:03:13;;;;;;;15.73;9.73;;;10.80;66.10;;;6.16;100.00;93619.00;5012067;28;20516;-57
2024/03/03 03:05:39;;;;;;;18.55;9.60;;;10.80;66.00;;;6.23;100.00;93633.44;5002923;28;20033;-58
2024/03/03 03:08:05;;;;;;;15.75;10.30;;;10.80;66.10;;;6.15;100.00;93628.03;5003703;28;20036;-58
2024/03/03 03:10:31;;;;;;;17.60;10.70;;;10.80;66.00;;;6.13;100.00;93630.94;5002470;28;20051;-54
2024/03/03 03:12:57;;;;;;;18.67;11.40;;;10.80;66.00;;;6.09;100.00;93626.50;5012086;28;20415;-53
2024/03/03 03:15:22;;;;;;;20.65;11.63;;;10.80;66.70;;;5.92;100.00;93633.03;5003293;28;20050;-56
2024/03/03 03:17:48;;;;;;;21.38;10.73;;;10.70;65.80;;;5.85;100.00;93637.06;5001488;28;20026;-55
2024/03/03 03:20:14;;;;;;;22.25;13.05;;;10.70;65.80;;;5.89;100.00;93636.25;5015939;28;20489;-55
2024/03/03 03:22:41;;;;;;;19.05;11.70;;;10.70;65.90;;;5.80;100.00;93632.63;5018079;28;20017;-57
2024/03/03 03:25:07;;;;;;;22.30;12.13;;;10.70;66.00;;;5.80;100.00;93635.28;5011624;28;20564;-57
2024/03/03 03:27:33;;;;;;;20.92;13.63;;;10.70;66.10;;;5.90;100.00;93639.66;5015862;28;20060;-57
2024/03/03 03:29:59;;;;;;;20.95;12.82;;;10.70;66.20;;;5.83;100.00;93637.38;5007475;28;20030;-57
2024/03/03 03:32:25;;;;;;;21.10;13.00;;;10.60;66.30;;;5.88;100.00;93633.88;5024833;28;20089;-55
2024/03/03 03:34:50;;;;;;;22.30;12.63;;;10.60;66.30;;;5.83;100.00;93637.38;5016932;28;20028;-58
2024/03/03 03:37:16;;;;;;;24.33;13.45;;;10.60;66.30;;;5.79;100.00;93631.81;5014082;28;20024;-55
2024/03/03 03:39:42;;;;;;;24.17;13.55;;;10.60;66.30;;;5.75;100.00;93632.69;5012187;28;20090;-55
2024/03/03 03:42:08;;;;;;;19.58;12.45;;;10.60;66.30;;;5.74;100.00;93634.53;4998920;28;20036;-56
2024/03/03 03:44:34;;;;;;;20.67;12.98;;;10.50;66.30;;;5.73;100.00;93642.75;5015478;28;20025;-56
2024/03/03 03:47:02;;;;;;;21.10;13.52;;;10.50;66.40;;;5.80;100.00;93640.56;5012151;28;20025;-57
2024/03/03 03:49:29;;;;;;;21.67;12.70;;;10.50;66.40;;;5.73;100.00;93642.75;5007283;28;20032;-56
2024/03/03 03:51:56;;;;;;;24.17;13.50;;;10.50;66.40;;;5.79;100.00;93641.63;5007082;28;20028;-56
2024/03/03 03:54:22;;;;;;;22.05;13.93;;;10.50;66.40;;;5.73;100.00;93648.81;5021587;28;20805;-56
2024/03/03 03:56:48;;;;;;;21.90;12.75;;;10.50;66.50;;;5.71;100.00;93635.09;5016614;28;20109;-54
2024/03/03 03:59:13;;;;;;;22.30;13.27;;;10.50;66.50;;;5.69;100.00;93639.09;5015384;28;20038;-55
2024/03/03 04:01:39;;;;;;;21.02;11.88;;;10.50;66.50;;;5.72;100.00;93636.66;4996534;28;20168;-55
2024/03/03 04:04:05;;;;;;;18.60;11.07;;;10.50;66.60;;;5.77;100.00;93639.28;4998455;28;20120;-57
2024/03/03 04:06:31;;;;;;;18.75;12.30;;;10.50;66.70;;;5.80;100.00;93628.13;5011270;28;20058;-55
2024/03/03 04:08:56;;;;;;;18.55;11.43;;;10.50;66.70;;;5.86;100.00;93626.22;5009802;28;20026;-54
2024/03/03 04:11:23;;;;;;;18.27;11.82;;;10.50;66.70;;;5.93;100.00;93637.28;5014354;28;20024;-54
2024/03/03 04:13:52;;;;;;;18.20;11.30;;;10.50;66.70;;;5.91;100.00;93631.44;5003377;28;20030;-53
2024/03/03 04:16:18;;;;;;;18.38;10.88;;;10.60;66.80;;;5.91;100.00;93634.09;5014381;28;20029;-53
2024/03/03 04:18:45;;;;;;;17.52;11.80;;;10.60;66.60;;;5.93;100.00;93633.84;5000887;28;20026;-56
2024/03/03 04:21:12;;;;;;;16.02;9.98;;;10.60;66.60;;;5.90;100.00;93623.81;5010657;28;20067;-55
2024/03/03 04:23:39;;;;;;;14.13;9.88;;;10.60;66.50;;;5.91;100.00;93626.16;4969713;28;20059;-57
2024/03/03 04:26:07;;;;;;;16.80;10.88;;;10.60;66.50;;;5.90;100.00;93618.53;5012323;28;20551;-57
2024/03/03 04:28:34;;;;;;;18.98;11.13;;;10.60;66.40;;;5.89;100.00;93615.09;4995962;28;20051;-54
2024/03/03 04:31:07;;;;;;;16.88;10.93;;;10.60;66.40;;;5.93;100.00;93625.91;5004054;28;20045;-57
2024/03/03 04:33:34;;;;;;;16.65;10.45;;;10.60;66.30;;;5.89;100.00;93620.38;5003669;28;20387;-54
2024/03/03 04:36:00;;;;;;;18.70;10.18;;;10.60;66.30;;;5.83;100.00;93613.59;5004946;28;20388;-57
2024/03/03 04:38:26;;;;;;;17.45;11.02;;;10.60;66.20;;;5.89;100.00;93619.56;5021014;28;20476;-57
2024/03/03 04:40:52;;;;;;;19.92;10.15;;;10.60;66.10;;;5.85;100.00;93619.34;4997199;28;20075;-57
2024/03/03 04:43:17;;;;;;;16.15;10.73;;;10.60;66.10;;;5.82;100.00;93613.84;5020868;28;20495;-56
2024/03/03 04:45:43;;;;;;;17.65;10.80;;;10.60;66.10;;;5.82;100.00;93609.34;4984946;28;20017;-55
2024/03/03 04:48:09;;;;;;;16.23;10.60;;;10.60;66.10;;;5.78;100.00;93605.72;5007439;28;20013;-55
2024/03/03 04:50:35;;;;;;;15.77;10.48;;;10.60;66.10;;;5.75;100.00;93606.25;5015868;28;20537;-53
2024/03/03 04:53:02;;;;;;;19.83;12.20;;;10.50;66.00;;;5.77;100.00;93607.56;4996822;28;20116;-57
2024/03/03 04:55:28;;;;;;;22.35;12.57;;;10.50;65.90;;;5.71;100.00;93616.63;4994966;28;20033;-55
2024/03/03 04:57:55;;;;;;;23.60;12.52;;;10.50;65.90;;;5.71;100.00;93611.34;5008392;28;20025;-57
2024/03/03 05:00:21;;;;;;;18.50;11.48;;;10.50;66.00;;;5.59;100.00;93608.28;4997395;28;20025;-53
2024/03/03 05:02:48;;;;;;;19.23;12.23;;;10.40;66.00;;;5.64;100.00;93607.44;5006590;28;20032;-58
2024/03/03 05:05:13;;;;;;;20.50;12.13;;;10.40;66.00;;;5.64;100.00;93605.59;5013798;28;20028;-56
2024/03/03 05:07:39;;;;;;;19.98;12.10;;;10.40;66.10;;;5.62;100.00;93609.59;5010391;28;20496;-54
2024/03/03 05:10:06;;;;;;;19.60;12.18;;;10.40;66.20;;;5.64;100.00;93610.09;5012345;28;20542;-55
2024/03/03 05:12:32;;;;;;;20.42;12.18;;;10.40;66.30;;;5.65;100.00;93609.03;5013852;28;20021;-56
2024/03/03 05:14:58;;;;;;;22.00;12.60;;;10.40;66.30;;;5.61;100.00;93610.63;5013148;28;20506;-56
2024/03/03 05:17:24;;;;;;;19.48;12.27;;;10.30;66.20;;;5.57;100.00;93615.69;5002247;28;20093;-56
2024/03/03 05:19:50;;;;;;;20.23;12.23;;;10.40;66.20;;;5.50;100.00;93609.97;5002210;28;20039;-54
2024/03/03 05:22:16;;;;;;;18.65;11.63;;;10.30;66.20;;;5.49;100.00;93608.41;5002176;28;20082;-53
2024/03/03 05:24:44;;;;;;;23.83;12.63;;;10.30;66.20;;;5.51;100.00;93604.41;5013842;28;20028;-53
2024/03/03 05:27:10;;;;;;;20.13;12.57;;;10.30;66.50;;;5.49;100.00;93606.56;5012779;28;20029;-57
2024/03/03 05:29:36;;;;;;;22.48;13.82;;;10.30;66.20;;;5.47;100.00;93602.63;5010958;28;20056;-52
2024/03/03 05:32:01;;;;;;;20.98;13.27;;;10.20;66.10;;;5.49;100.00;93597.84;5012404;28;20061;-56
2024/03/03 05:34:27;;;;;;;26.50;14.60;;;10.20;66.10;;;5.43;100.00;93594.47;5008230;28;20039;-52
2024/03/03 05:36:53;;;;;;;22.63;14.32;;;10.20;66.20;;;5.39;100.00;93603.22;4999186;28;20084;-56
2024/03/03 05:39:19;;;;;;;21.83;13.30;;;10.10;66.10;;;5.32;100.00;93593.78;5018683;28;20056;-57
2024/03/03 05:41:44;;;;;;;17.70;11.05;;;10.10;66.20;;;5.34;100.00;93596.16;5010007;28;20086;-55
2024/03/03 05:44:10;;;;;;;17.77;11.18;;;10.10;66.20;;;5.41;100.00;93601.88;5003801;28;20442;-52
2024/03/03 05:46:37;;;;;;;18.92;11.70;;;10.10;66.30;;;5.54;100.00;93606.47;5003617;28;20555;-56
2024/03/03 05:49:04;;;;;;;20.13;11.90;;;10.10;67.10;;;5.52;100.00;93594.66;5010620;28;20025;-56
2024/03/03 05:51:30;;;;;;;16.13;10.85;;;10.10;66.30;;;5.46;100.00;93601.84;5005368;28;20036;-55
2024/03/03 05:53:56;;;;;;;16.98;11.00;;;10.10;66.20;;;5.38;100.00;93599.78;4999799;28;20024;-56
2024/03/03 05:56:22;;;;;;;20.20;12.15;;;10.10;66.10;;;5.36;100.00;93599.31;5003848;28;20040;-55
2024/03/03 05:58:48;;;;;;;16.17;10.35;;;10.10;66.10;;;5.24;100.00;93590.97;5012272;28;20435;-53
2024/03/03 06:01:14;;;;;;;18.05;11.38;;;10.00;66.00;;;5.31;100.00;93592.19;5001734;28;20044;-54
2024/03/03 06:03:41;;;;;;;17.80;10.93;;;10.00;66.00;;;5.23;100.00;93589.38;5006688;28;20033;-55
2024/03/03 06:06:08;;;;;;;19.13;11.30;;;9.90;65.80;;;5.23;100.00;93595.47;5016059;28;20103;-54
2024/03/03 06:08:39;;;;;;;20.45;11.98;;;9.90;65.80;;;5.05;100.00;93591.66;5002062;28;20018;-54
2024/03/03 06:11:06;;;;;;;25.08;13.57;;;9.90;65.70;;;5.00;100.00;93590.94;4995468;28;20159;-54
2024/03/03 06:13:34;;;;;;;26.83;14.85;;;9.80;65.60;;;4.98;100.00;93582.50;5009448;28;20113;-52
2024/03/03 06:16:00;;;;;;;23.55;13.73;;;9.80;65.60;;;4.82;100.00;93579.19;5003668;28;20113;-56
2024/03/03 06:18:27;;;;;;;21.13;12.43;;;9.70;65.60;;;4.72;100.00;93577.44;5009140;28;20103;-56
2024/03/03 06:20:54;;;;;;;22.77;13.32;;;9.70;65.60;;;4.76;100.00;93593.50;4997807;28;20021;-53
2024/03/03 06:23:21;;;;;;;21.70;12.82;;;9.60;65.70;;;4.70;100.00;93595.41;4995464;28;20112;-54
2024/03/03 06:25:47;;;;;;;22.50;12.70;;;9.60;65.80;;;4.70;100.00;93587.50;5015722;28;20024;-54
2024/03/03 06:28:13;;;;;;;23.65;13.00;;;9.50;65.80;;;4.65;100.00;93587.53;5005794;28;20030;-54
2024/03/03 06:30:38;;;;;;;26.88;13.55;;;9.50;65.90;;;4.63;100.00;93577.22;5005081;28;20025;-56
2024/03/03 06:33:05;;;;;;;20.67;12.60;;;9.40;65.90;;;4.64;100.00;93586.72;5008750;28;20022;-55
2024/03/03 06:35:30;;;;;;;25.20;14.55;;;9.50;66.10;;;4.61;100.00;93586.50;5012413;28;20036;-54
2024/03/03 06:37:56;;;;;;;26.63;13.93;;;9.50;66.10;;;4.63;100.00;93587.78;5000285;28;20480;-57
2024/03/03 06:40:22;;;;;;;25.75;14.35;;;9.40;66.10;;;4.59;100.00;93584.13;5013355;28;20476;-54
2024/03/03 06:42:48;;;;;;;23.83;14.07;;;9.50;66.20;;;4.54;100.00;93583.38;5007600;28;20029;-56
2024/03/03 06:45:14;;;;;;;27.45;16.20;;;9.50;66.30;;;4.52;100.00;93581.03;5007226;28;20128;-54
2024/03/03 06:47:40;;;;;;;33.10;14.82;;;9.50;66.40;;;4.60;100.00;93587.53;5007203;28;20485;-55
2024/03/03 06:50:06;;;;;;;24.00;14.23;;;9.50;66.40;;;4.67;100.00;93595.13;5008734;28;20026;-52
2024/03/03 06:52:32;;;;;;;25.23;14.48;;;9.50;66.50;;;4.66;100.00;93589.09;4996731;28;20450;-56
2024/03/03 06:54:59;;;;;;;25.40;14.38;;;9.50;66.50;;;4.67;100.00;93587.22;5000422;28;20184;-55
2024/03/03 06:57:27;;;;;;;26.15;13.90;;;9.60;66.50;;;4.70;100.00;93590.13;5007137;28;20052;-54
2024/03/03 06:59:53;;;;;;;29.13;15.18;;;9.70;66.70;;;4.78;100.00;93586.88;5015807;28;20017;-54
2024/03/03 07:02:20;;;;;;;24.45;14.98;;;9.70;66.60;;;4.86;100.00;93586.28;5010244;28;20024;-53
2024/03/03 07:04:46;;;;;;;23.95;15.02;;;9.80;67.50;;;4.88;100.00;93592.06;5012138;28;20119;-51
2024/03/03 07:07:12;;;;;;;23.98;13.35;;;9.80;66.60;;;4.94;100.00;93594.66;5017607;28;20147;-53
2024/03/03 07:09:39;;;;;;;22.95;13.82;;;9.90;66.70;;;4.85;100.00;93581.28;5011069;28;20052;-55
2024/03/03 07:12:07;;;;;;;21.08;13.13;;;9.90;66.70;;;4.91;100.00;93587.31;5008339;28;20579;-57
2024/03/03 07:14:34;;;;;;;20.88;11.93;;;9.90;66.60;;;4.98;100.00;93583.31;5019874;28;20025;-55
2024/03/03 07:17:00;;;;;;;22.88;13.07;;;10.00;66.60;;;5.04;100.00;93590.06;5007109;28;20030;-56
2024/03/03 07:19:25;;;;;;;21.52;13.68;;;10.00;66.50;;;5.13;100.00;93589.47;5013516;28;20050;-53
2024/03/03 07:21:51;;;;;;;24.33;13.20;;;10.10;66.50;;;5.14;100.00;93583.94;5018785;28;20037;-56
2024/03/03 07:24:17;;;;;;;20.35;12.20;;;10.10;66.50;;;5.18;100.00;93584.16;5015992;28;20033;-55
2024/03/03 07:26:43;;;;;;;22.05;12.73;;;10.20;66.40;;;5.17;100.00;93588.66;5004667;28;20028;-56
2024/03/03 07:29:10;;;;;;;22.58;13.30;;;10.20;66.30;;;5.14;100.00;93577.84;5018068;28;20074;-54
2024/03/03 07:31:36;;;;;;;23.88;13.07;;;10.30;66.30;;;5.19;100.00;93577.81;5015443;28;20365;-56
2024/03/03 07:34:03;;;;;;;18.70;11.75;;;10.30;66.20;;;5.25;100.00;93581.97;5022219;28;20055;-57
2024/03/03 07:36:30;;;;;;;20.70;13.02;;;10.40;66.10;;;5.34;100.00;93578.44;5006343;28;20035;-56
2024/03/03 07:38:55;;;;;;;16.98;11.52;;;10.40;66.00;;;5.38;100.00;93577.88;5018403;28;20029;-54
2024/03/03 07:41:21;;;;;;;17.60;10.13;;;10.50;65.90;;;5.36;100.00;93575.53;5011819;28;20099;-57
2024/03/03 07:43:47;;;;;;;21.45;11.55;;;10.60;65.90;;;5.44;100.00;93576.75;5019473;28;20032;-57
2024/03/03 07:46:13;;;;;;;18.27;10.50;;;10.60;65.80;;;5.50;100.00;93579.06;5013896;28;21461;-57
2024/03/03 07:48:40;;;;;;;17.48;11.23;;;10.70;65.70;;;5.51;100.00;93578.00;5026000;28;20028;-51
2024/03/03 07:51:07;;;;;;;14.65;9.40;;;10.70;65.60;;;5.57;100.00;93581.38;5013953;28;20021;-53
2024/03/03 07:53:33;;;;;;;16.33;9.45;;;10.80;65.50;;;5.54;100.00;93576.66;4993376;28;20074;-52
2024/03/03 07:56:02;;;;;;;14.35;9.48;;;10.80;65.30;;;5.64;100.00;93583.66;4997352;28;20404;-56
2024/03/03 07:58:28;;;;;;;11.48;8.65;;;10.90;65.30;;;5.67;100.00;93586.56;5013689;28;20158;-54
2024/03/03 08:00:54;;;;;;;16.30;10.05;;;10.90;65.10;;;5.63;100.00;93577.59;5000959;28;20406;-55
2024/03/03 08:03:20;;;;;;;14.45;9.40;;;11.00;65.00;;;5.71;100.00;93571.72;5013549;28;20047;-56
2024/03/03 08:05:46;;;;;;;14.18;9.05;;;11.10;64.90;;;5.82;100.00;93582.94;5017467;28;20027;-55
2024/03/03 08:08:12;;;;;;;11.75;8.30;;;11.20;64.80;;;5.95;100.00;93584.13;5017289;28;20476;-53
2024/03/03 08:10:40;;;;;;;16.45;10.43;;;11.20;64.70;;;6.07;100.00;93589.78;5010878;28;20110;-56
2024/03/03 08:13:06;;;;;;;16.75;10.98;;;11.30;64.60;;;6.02;100.00;93590.66;5015551;28;20028;-56
2024/03/03 08:15:33;;;;;;;19.35;11.38;;;11.40;64.40;;;6.07;100.00;93589.78;5006905;28;20036;-57
2024/03/03 08:18:00;;;;;;;22.15;12.23;;;11.50;64.20;;;6.09;100.00;93595.56;5002671;28;20163;-58
2024/03/03 08:20:27;;;;;;;18.60;11.13;;;11.60;64.00;;;6.05;100.00;93586.66;5005925;28;20028;-55
2024/03/03 08:22:53;;;;;;;15.75;10.30;;;11.70;63.80;;;6.19;100.00;93598.06;5010657;28;20068;-57
2024/03/03 08:25:21;;;;;;;18.55;10.63;;;11.70;63.60;;;6.30;100.00;93592.66;5014327;28;20123;-56
2024/03/03 08:27:47;;;;;;;16.70;10.27;;;11.80;63.50;;;6.38;100.00;93600.72;5021136;28;20021;-57
2024/03/03 08:30:14;;;;;;;17.92;11.68;;;11.80;63.30;;;6.38;100.00;93595.44;5002570;28;20489;-54
2024/03/03 08:32:41;;;;;;;17.48;10.52;;;11.90;63.30;;;6.48;100.00;93591.84;4970172;28;23659;-52
2024/03/03 08:35:08;;;;;;;18.45;10.27;;;12.00;63.30;;;6.53;100.00;93591.03;5002554;28;20108;-56
2024/03/03 08:37:35;;;;;;;16.20;9.80;;;12.10;63.20;;;6.57;100.00;93598.06;5012139;28;20094;-51
2024/03/03 08:40:04;;;;;;;14.98;10.10;;;12.10;63.00;;;6.71;100.00;93590.22;5016944;28;20025;-56
2024/03/03 08:42:30;;;;;;;18.88;11.57;;;12.20;62.80;;;6.73;100.00;93588.06;5019048;28;20090;-51
2024/03/03 08:44:56;;;;;;;16.85;11.02;;;12.30;62.70;;;6.82;100.00;93588.97;5017632;28;20032;-52
2024/03/03 08:47:22;;;;;;;16.85;10.50;;;12.30;62.60;;;6.85;100.00;93588.38;5023120;28;20025;-58
2024/03/03 08:49:48;;;;;;;18.48;10.90;;;12.40;62.40;;;6.89;100.00;93588.59;5019946;28;20036;-57
2024/03/03 08:52:13;;;;;;;16.23;10.30;;;12.50;62.20;;;6.91;100.00;93583.81;5014760;28;20388;-55
2024/03/03 08:54:40;;;;;;;20.63;11.80;;;12.50;62.00;;;6.83;100.00;93576.50;5012418;28;20426;-57
2024/03/03 08:57:06;;;;;;;17.95;11.95;;;12.50;61.60;;;6.86;100.00;93579.41;5011271;28;20029;-56
2024/03/03 08:59:32;;;;;;;16.40;11.40;;;12.60;61.50;;;6.85;100.00;93561.94;5016296;28;20070;-56
2024/03/03 09:01:58;;;;;;;16.50;11.05;;;12.60;61.20;;;6.95;100.00;93561.75;5018474;28;20468;-53
2024/03/03 09:04:23;;;;;;;17.95;11.30;;;12.70;61.20;;;7.05;100.00;93560.81;5017079;28;20036;-55
2024/03/03 09:06:49;;;;;;;17.52;11.13;;;12.70;61.10;;;7.03;100.00;93570.13;5026013;28;20111;-56
2024/03/03 09:09:16;;;;;;;17.13;10.30;;;12.80;61.10;;;6.86;99.57;93562.69;5024242;28;20060;-57
2024/03/03 09:11:47;;;;;;;15.35;9.95;;;12.80;60.80;;;6.95;98.91;93566.25;5022171;28;20115;-55
2024/03/03 09:14:14;;;;;;;27.33;15.15;;;12.80;61.30;;;7.03;100.00;93573.53;5023774;28;20025;-52
2024/03/03 09:16:40;;;;;;;13.95;10.02;;;12.90;60.50;;;7.18;99.32;93581.22;5005354;28;20507;-56
2024/03/03 09:19:07;;;;;;;14.27;10.05;;;12.90;60.40;;;7.26;100.00;93571.81;5015832;28;20029;-56
2024/03/03 09:21:36;;;;;;;15.77;8.75;;;12.90;61.20;;;7.23;97.59;93577.69;5014644;28;20020;-55
2024/03/03 09:24:03;;;;;;;15.65;9.57;;;13.00;60.30;;;7.43;96.96;93573.91;5017704;28;20419;-57
2024/03/03 09:26:28;;;;;;;12.50;9.02;;;13.00;60.20;;;7.42;95.84;93577.63;5011577;28;20104;-53
2024/03/03 09:28:54;;;;;;;13.10;8.90;;;13.10;60.10;;;7.41;97.90;93570.75;5012602;28;20113;-53
2024/03/03 09:31:20;;;;;;;12.82;9.07;;;13.10;59.90;;;7.58;95.71;93576.28;5022557;28;20464;-52
2024/03/03 09:33:46;;;;;;;11.70;7.97;;;13.20;59.90;;;7.56;93.83;93570.47;5011383;28;20099;-52
2024/03/03 09:36:12;;;;;;;18.00;8.70;;;13.20;59.70;;;7.72;96.12;93572.84;5011372;28;20018;-56
2024/03/03 09:38:38;;;;;;;11.73;8.40;;;13.30;59.70;;;7.84;94.62;93581.88;5008564;28;20096;-54
2024/03/03 09:41:04;;;;;;;11.85;8.40;;;13.40;59.70;;;7.89;91.90;93573.00;5019169;28;20074;-56
2024/03/03 09:43:42;;;;;;;13.63;7.90;;;13.50;59.50;;;7.94;93.81;93567.63;5012413;28;20119;-54
2024/03/03 09:46:08;;;;;;;11.13;8.00;;;13.50;59.30;;;7.90;90.38;93571.97;5019179;28;20104;-54
2024/03/03 09:48:36;;;;;;;12.70;8.10;;;13.60;59.20;;;7.93;90.16;93576.66;4992694;28;20031;-54
2024/03/03 09:51:03;;;;;;;13.52;8.65;;;13.60;59.00;;;8.06;89.13;93565.25;5015615;28;20020;-57
2024/03/03 09:53:30;;;;;;;12.65;8.02;;;13.70;58.80;;;8.18;88.46;93572.69;5014333;28;20056;-56
2024/03/03 09:55:58;;;;;;;12.48;7.90;;;13.80;58.70;;;8.22;88.25;93571.00;4998120;28;20037;-56
2024/03/03 09:58:24;;;;;;;11.57;7.32;;;13.90;58.50;;;8.22;87.64;93575.53;5017961;28;20032;-57
2024/03/03 10:00:53;;;;;;;10.27;7.20;;;14.00;58.40;;;8.37;86.48;93577.88;5002075;28;20033;-56
2024/03/03 10:03:24;;;;;;;11.38;7.90;;;14.00;58.10;;;8.46;87.83;93567.34;5017955;28;20021;-51
2024/03/03 10:05:57;;;;;;;10.60;6.90;;;14.20;58.00;;;8.51;86.92;93572.53;4992178;28;20435;-53